createdAt,value
2019-01-28T00:02:08.431Z,57.70
2019-01-28T00:04:39.220Z,61.03
2019-01-28T00:07:09.929Z,59.67
2019-01-28T00:09:40.574Z,60.87
2019-01-28T00:12:11.150Z,58.80
2019-01-28T00:14:41.780Z,59.37
2019-01-28T00:17:12.580Z,69.83
2019-01-28T00:19:42.957Z,68.23
2019-01-28T00:22:13.585Z,63.70
2019-01-28T00:24:44.099Z,63.87
2019-01-28T00:27:14.799Z,64.50
2019-01-28T00:29:45.336Z,63.83
2019-01-28T00:32:16.210Z,61.20
2019-01-28T00:34:46.909Z,60.73
2019-01-28T00:37:17.349Z,58.03
2019-01-28T00:39:47.859Z,62.13
2019-01-28T00:42:18.734Z,68.00
2019-01-28T00:44:49.491Z,63.27
2019-01-28T00:47:20.197Z,57.90
2019-01-28T00:49:50.809Z,61.87
2019-01-28T00:52:21.464Z,61.83
2019-01-28T00:54:51.909Z,61.83
2019-01-28T00:57:22.552Z,66.10
2019-01-28T00:59:53.890Z,58.67
2019-01-28T01:02:24.740Z,61.93
2019-01-28T01:04:55.269Z,60.07
2019-01-28T01:07:25.875Z,64.73
2019-01-28T01:09:56.497Z,69.10
2019-01-28T01:12:27.029Z,55.70
2019-01-28T01:14:57.695Z,65.80
2019-01-28T01:17:28.401Z,68.50
2019-01-28T01:19:58.920Z,64.07
2019-01-28T01:22:29.539Z,59.80
2019-01-28T01:25:00.794Z,66.63
2019-01-28T01:27:31.409Z,64.93
2019-01-28T01:30:01.992Z,69.60
2019-01-28T01:32:32.653Z,75.77
2019-01-28T01:35:03.415Z,75.27
2019-01-28T01:37:33.864Z,68.27
2019-01-28T01:40:05.300Z,65.60
2019-01-28T01:42:35.880Z,64.83
2019-01-28T01:45:08.460Z,56.97
2019-01-28T01:47:39.010Z,58.87
2019-01-28T01:50:11.254Z,65.47
2019-01-28T01:52:43.358Z,55.47
2019-01-28T01:55:15.134Z,65.60
2019-01-28T01:57:45.709Z,65.27
2019-01-28T02:00:19.258Z,67.70
2019-01-28T02:02:49.929Z,65.20
2019-01-28T02:05:20.824Z,64.27
2019-01-28T02:07:51.368Z,70.00
2019-01-28T02:10:22.038Z,67.50
2019-01-28T02:12:52.438Z,65.73
2019-01-28T02:15:23.058Z,67.17
2019-01-28T02:17:53.738Z,70.07
2019-01-28T02:20:24.331Z,64.97
2019-01-28T02:22:54.979Z,68.03
2019-01-28T02:25:25.638Z,66.47
2019-01-28T02:27:56.264Z,71.13
2019-01-28T02:30:26.915Z,66.37
2019-01-28T02:32:57.494Z,75.17
2019-01-28T02:35:28.040Z,72.13
2019-01-28T02:37:58.576Z,63.80
2019-01-28T02:40:29.530Z,74.03
2019-01-28T02:43:00.337Z,70.37
2019-01-28T02:45:31.056Z,64.27
2019-01-28T02:48:01.684Z,66.20
2019-01-28T02:50:32.634Z,60.77
2019-01-28T02:53:03.320Z,65.73
2019-01-28T02:55:34.258Z,68.27
2019-01-28T02:58:04.864Z,60.40
2019-01-28T03:00:35.306Z,66.53
2019-01-28T03:03:06.018Z,67.10
2019-01-28T03:05:36.724Z,60.53
2019-01-28T03:08:07.250Z,62.97
2019-01-28T03:10:37.804Z,68.43
2019-01-28T03:13:08.440Z,66.30
2019-01-28T03:15:39.036Z,61.27
2019-01-28T03:18:09.650Z,67.43
2019-01-28T03:20:40.090Z,59.43
2019-01-28T03:23:11.805Z,69.03
2019-01-28T03:25:42.450Z,62.93
2019-01-28T03:28:13.059Z,62.83
2019-01-28T03:30:43.681Z,58.77
2019-01-28T03:33:14.191Z,59.43
2019-01-28T03:35:44.740Z,59.27
2019-01-28T03:38:15.418Z,59.93
2019-01-28T03:40:45.990Z,59.70
2019-01-28T03:43:16.640Z,61.90
2019-01-28T03:45:47.290Z,70.97
2019-01-28T03:48:18.266Z,74.37
2019-01-28T03:50:48.943Z,63.10
2019-01-28T03:53:20.094Z,66.07
2019-01-28T03:55:50.819Z,75.23
2019-01-28T03:58:21.564Z,73.37
2019-01-28T04:00:52.138Z,73.00
2019-01-28T04:03:22.800Z,78.47
2019-01-28T04:05:53.449Z,70.77
2019-01-28T04:08:24.048Z,75.67
2019-01-28T04:10:54.704Z,73.53
2019-01-28T04:13:25.225Z,72.07
2019-01-28T04:15:55.810Z,71.93
2019-01-28T04:18:28.099Z,68.27
2019-01-28T04:20:58.729Z,73.30
2019-01-28T04:23:29.345Z,75.03
2019-01-28T04:25:59.999Z,63.63
2019-01-28T04:28:30.695Z,63.70
2019-01-28T04:31:01.284Z,66.57
2019-01-28T04:33:31.966Z,65.60
2019-01-28T04:36:02.594Z,70.40
2019-01-28T04:38:33.378Z,65.63
2019-01-28T04:41:04.241Z,70.17
2019-01-28T04:43:34.774Z,66.63
2019-01-28T04:46:05.624Z,70.27
2019-01-28T04:48:36.316Z,65.67
2019-01-28T04:51:07.004Z,70.40
2019-01-28T04:53:37.679Z,67.30
2019-01-28T04:56:08.306Z,67.03
2019-01-28T04:58:38.863Z,65.47
2019-01-28T05:01:09.559Z,61.33
2019-01-28T05:03:40.489Z,66.77
2019-01-28T05:06:11.142Z,67.33
2019-01-28T05:08:41.749Z,68.60
2019-01-28T05:11:12.478Z,68.87
2019-01-28T05:13:43.175Z,68.43
2019-01-28T05:16:13.731Z,70.27
2019-01-28T05:18:44.380Z,65.37
2019-01-28T05:21:15.114Z,67.83
2019-01-28T05:23:45.613Z,57.90
2019-01-28T05:26:16.318Z,62.27
2019-01-28T05:28:46.994Z,61.97
2019-01-28T05:31:17.700Z,61.63
2019-01-28T05:33:48.488Z,63.47
2019-01-28T05:36:19.110Z,60.83
2019-01-28T05:38:49.732Z,69.87
2019-01-28T05:41:20.395Z,63.90
2019-01-28T05:43:50.856Z,58.10
2019-01-28T05:46:21.581Z,62.10
2019-01-28T05:48:52.222Z,62.43
2019-01-28T05:51:22.889Z,71.50
2019-01-28T05:53:53.916Z,63.10
2019-01-28T05:56:24.639Z,68.23
2019-01-28T05:58:55.350Z,56.87
2019-01-28T06:01:25.990Z,60.23
2019-01-28T06:03:56.596Z,56.77
2019-01-28T06:06:27.392Z,62.47
2019-01-28T06:08:57.879Z,56.50
2019-01-28T06:11:28.601Z,61.70
2019-01-28T06:13:59.115Z,57.47
2019-01-28T06:16:29.707Z,60.73
2019-01-28T06:19:00.385Z,60.33
2019-01-28T06:21:31.055Z,57.63
2019-01-28T06:24:01.635Z,62.97
2019-01-28T06:26:32.278Z,63.37
2019-01-28T06:29:04.368Z,63.93
2019-01-28T06:31:35.122Z,66.87
2019-01-28T06:34:06.283Z,70.90
2019-01-28T06:36:37.138Z,72.80
2019-01-28T06:39:11.088Z,72.00
2019-01-28T06:41:41.704Z,71.80
2019-01-28T06:44:12.374Z,74.67
2019-01-28T06:46:42.929Z,68.83
2019-01-28T06:49:13.699Z,69.33
2019-01-28T06:51:44.415Z,58.90
2019-01-28T06:54:15.039Z,66.77
2019-01-28T06:56:45.700Z,74.93
2019-01-28T06:59:16.314Z,69.03
2019-01-28T07:01:47.095Z,76.50
2019-01-28T07:04:17.983Z,69.07
2019-01-28T07:06:48.947Z,66.47
2019-01-28T07:09:19.519Z,68.70
2019-01-28T07:11:50.224Z,68.30
2019-01-28T07:14:20.989Z,68.40
2019-01-28T07:16:51.699Z,67.37
2019-01-28T07:19:22.641Z,60.87
2019-01-28T07:21:53.293Z,66.37
2019-01-28T07:24:23.969Z,64.87
2019-01-28T07:26:55.584Z,63.90
2019-01-28T07:29:26.198Z,73.37
2019-01-28T07:31:56.743Z,70.43
2019-01-28T07:34:27.622Z,77.93
2019-01-28T07:36:59.195Z,68.40
2019-01-28T07:39:29.826Z,72.93
2019-01-28T07:42:00.529Z,69.10
2019-01-28T07:44:31.261Z,73.47
2019-01-28T07:47:02.045Z,66.83
2019-01-28T07:49:32.858Z,73.57
2019-01-28T07:52:03.565Z,76.80
2019-01-28T07:54:34.438Z,78.50
2019-01-28T07:57:05.070Z,85.87
2019-01-28T07:59:35.796Z,72.87
2019-01-28T08:02:06.776Z,80.33
2019-01-28T08:04:37.390Z,89.33
2019-01-28T08:07:08.238Z,90.97
2019-01-28T08:09:38.914Z,87.23
2019-01-28T08:12:09.492Z,94.13
2019-01-28T08:14:40.040Z,96.40
2019-01-28T08:17:10.693Z,94.77
2019-01-28T08:19:41.338Z,85.30
2019-01-28T08:22:12.523Z,91.20
2019-01-28T08:24:43.519Z,86.60
2019-01-28T08:27:14.060Z,78.47
2019-01-28T08:29:44.583Z,79.90
2019-01-28T08:32:15.221Z,80.63
2019-01-28T08:34:45.853Z,79.13
2019-01-28T08:37:16.404Z,79.87
2019-01-28T08:39:47.002Z,76.47
2019-01-28T08:42:17.586Z,73.90
2019-01-28T08:44:48.350Z,74.13
2019-01-28T08:47:19.017Z,74.47
2019-01-28T08:49:49.860Z,72.67
2019-01-28T08:52:20.629Z,72.53
2019-01-28T08:54:51.224Z,71.20
2019-01-28T08:57:21.797Z,73.30
2019-01-28T08:59:52.630Z,77.43
2019-01-28T09:02:23.174Z,75.77
2019-01-28T09:04:54.244Z,72.97
2019-01-28T09:07:24.742Z,71.67
2019-01-28T09:09:55.488Z,73.60
2019-01-28T09:12:26.677Z,71.93
2019-01-28T09:14:59.047Z,70.80
2019-01-28T09:17:29.693Z,67.03
2019-01-28T09:20:00.317Z,72.37
2019-01-28T09:22:30.890Z,77.03
2019-01-28T09:25:01.658Z,73.57
2019-01-28T09:27:32.341Z,71.00
2019-01-28T09:30:02.960Z,71.07
2019-01-28T09:32:33.630Z,66.63
2019-01-28T09:35:05.378Z,69.90
2019-01-28T09:37:35.954Z,68.70
2019-01-28T09:40:09.027Z,66.00
2019-01-28T09:42:39.790Z,66.43
2019-01-28T09:45:15.120Z,65.73
2019-01-28T09:47:45.794Z,67.20
2019-01-28T09:50:17.687Z,70.03
2019-01-28T09:52:50.869Z,72.33
2019-01-28T09:55:21.646Z,71.47
2019-01-28T09:57:52.409Z,76.20
2019-01-28T10:00:42.488Z,67.83
2019-01-28T10:03:13.138Z,77.43
2019-01-28T10:05:44.026Z,73.43
2019-01-28T10:08:14.879Z,75.27
2019-01-28T10:10:45.990Z,78.73
2019-01-28T10:13:16.690Z,75.77
2019-01-28T10:15:47.272Z,81.70
2019-01-28T10:18:17.897Z,78.87
2019-01-28T10:20:50.339Z,82.33
2019-01-28T10:23:20.916Z,90.23
2019-01-28T10:25:51.427Z,127.70
2019-01-28T10:28:22.115Z,114.43
2019-01-28T10:30:52.928Z,150.47
2019-01-28T10:33:23.514Z,131.63
2019-01-28T10:35:54.291Z,96.13
2019-01-28T10:38:25.119Z,90.73
2019-01-28T10:40:55.740Z,91.37
2019-01-28T10:43:26.439Z,70.50
2019-01-28T10:45:57.087Z,68.23
2019-01-28T10:48:31.141Z,62.83
2019-01-28T10:51:08.046Z,60.37
2019-01-28T10:53:38.761Z,64.37
2019-01-28T10:56:09.469Z,56.80
2019-01-28T10:58:40.179Z,58.40
2019-01-28T11:01:10.934Z,56.47
2019-01-28T11:03:41.649Z,54.93
2019-01-28T11:06:12.550Z,51.27
2019-01-28T11:08:43.066Z,46.97
2019-01-28T11:11:13.889Z,50.80
2019-01-28T11:13:44.587Z,49.23
2019-01-28T11:16:15.166Z,50.73
2019-01-28T11:18:46.180Z,49.60
2019-01-28T11:21:19.646Z,49.63
2019-01-28T11:23:50.455Z,47.77
2019-01-28T11:26:21.533Z,50.57
2019-01-28T11:28:52.201Z,50.90
2019-01-28T11:31:23.168Z,48.43
2019-01-28T11:33:54.229Z,44.47
2019-01-28T11:36:25.235Z,46.03
2019-01-28T11:38:56.002Z,43.90
2019-01-28T11:41:26.739Z,44.20
2019-01-28T11:43:57.466Z,41.60
2019-01-28T11:46:28.138Z,39.20
2019-01-28T11:49:05.742Z,39.10
2019-01-28T11:51:31.200Z,32.73
2019-01-28T11:54:02.098Z,35.77
2019-01-28T11:56:33.196Z,31.30
2019-01-28T11:59:03.819Z,32.60
2019-01-28T12:01:34.909Z,25.83
2019-01-28T12:04:06.128Z,31.27
2019-01-28T12:06:36.720Z,32.47
2019-01-28T12:09:11.033Z,30.93
2019-01-28T12:11:41.787Z,29.20
2019-01-28T12:14:12.465Z,24.50
2019-01-28T12:16:43.084Z,25.97
2019-01-28T12:19:14.557Z,24.67
2019-01-28T12:21:45.374Z,25.30
2019-01-28T12:24:16.112Z,23.53
2019-01-28T12:26:46.771Z,26.63
2019-01-28T12:29:17.549Z,25.27
2019-01-28T12:31:48.267Z,23.80
2019-01-28T12:34:18.805Z,25.63
2019-01-28T12:36:49.450Z,27.43
2019-01-28T12:39:20.229Z,28.17
2019-01-28T12:41:50.901Z,25.80
2019-01-28T12:44:21.619Z,27.87
2019-01-28T12:46:52.269Z,30.50
2019-01-28T12:49:23.048Z,24.30
2019-01-28T12:51:53.790Z,29.80
2019-01-28T12:54:24.579Z,27.67
2019-01-28T12:56:55.661Z,31.30
2019-01-28T12:59:31.370Z,27.67
2019-01-28T13:02:02.320Z,26.43
2019-01-28T13:04:33.035Z,30.20
2019-01-28T13:07:04.010Z,33.73
2019-01-28T13:09:34.700Z,39.47
2019-01-28T13:12:05.614Z,30.90
2019-01-28T13:14:36.237Z,37.23
2019-01-28T13:17:06.950Z,33.50
2019-01-28T13:19:37.517Z,33.07
2019-01-28T13:22:08.239Z,28.87
2019-01-28T13:24:38.830Z,33.37
2019-01-28T13:27:09.836Z,41.20
2019-01-28T13:29:40.535Z,38.93
2019-01-28T13:32:11.191Z,43.93
2019-01-28T13:34:41.876Z,47.67
2019-01-28T13:37:12.514Z,44.50
2019-01-28T13:39:43.190Z,47.80
2019-01-28T13:42:13.989Z,44.27
2019-01-28T13:44:44.665Z,47.17
2019-01-28T13:47:20.206Z,49.17
2019-01-28T13:49:51.434Z,50.87
2019-01-28T13:52:22.027Z,51.93
2019-01-28T13:54:52.670Z,55.00
2019-01-28T13:57:23.369Z,54.27
2019-01-28T13:59:54.130Z,50.10
2019-01-28T14:02:24.869Z,44.80
2019-01-28T14:04:55.490Z,45.00
2019-01-28T14:07:27.440Z,43.77
2019-01-28T14:09:58.174Z,42.90
2019-01-28T14:12:28.790Z,43.83
2019-01-28T14:14:59.475Z,40.27
2019-01-28T14:17:30.173Z,31.63
2019-01-28T14:20:00.840Z,33.47
2019-01-28T14:22:31.589Z,32.57
2019-01-28T14:25:02.122Z,33.43
2019-01-28T14:27:32.869Z,33.50
2019-01-28T14:30:03.556Z,32.33
2019-01-28T14:32:34.190Z,30.40
2019-01-28T14:35:05.165Z,32.57
2019-01-28T14:37:35.959Z,33.00
2019-01-28T14:40:08.559Z,34.10
2019-01-28T14:42:39.165Z,33.63
2019-01-28T14:45:11.262Z,38.10
2019-01-28T14:47:42.128Z,34.90
2019-01-28T14:50:20.435Z,41.20
2019-01-28T14:52:51.107Z,47.80
2019-01-28T14:55:21.810Z,48.83
2019-01-28T14:57:52.490Z,48.13
2019-01-28T15:00:28.084Z,45.23
2019-01-28T15:02:58.777Z,49.90
2019-01-28T15:05:29.430Z,56.90
2019-01-28T15:08:00.111Z,59.37
2019-01-28T15:10:32.850Z,60.50
2019-01-28T15:13:03.621Z,71.77
2019-01-28T15:15:36.694Z,59.97
2019-01-28T15:18:10.150Z,63.43
2019-01-28T15:20:40.950Z,69.33
2019-01-28T15:23:11.585Z,64.33
2019-01-28T15:25:42.364Z,65.03
2019-01-28T15:28:13.305Z,62.13
2019-01-28T15:30:44.325Z,64.17
2019-01-28T15:33:15.155Z,63.57
2019-01-28T15:35:46.059Z,65.43
2019-01-28T15:38:16.948Z,65.27
2019-01-28T15:40:47.660Z,71.53
2019-01-28T15:43:18.357Z,61.57
2019-01-28T15:45:49.148Z,58.80
2019-01-28T15:48:19.921Z,63.37
2019-01-28T15:50:50.724Z,60.87
2019-01-28T15:53:21.316Z,65.90
2019-01-28T15:55:51.950Z,63.03
2019-01-28T15:58:22.664Z,76.20
2019-01-28T16:00:53.244Z,65.27
2019-01-28T16:03:30.764Z,63.90
2019-01-28T16:06:02.432Z,63.00
2019-01-28T16:08:33.076Z,65.07
2019-01-28T16:11:03.975Z,60.57
2019-01-28T16:13:34.530Z,55.73
2019-01-28T16:16:06.295Z,64.53
2019-01-28T16:18:36.934Z,64.77
2019-01-28T16:21:07.604Z,61.90
2019-01-28T16:23:38.539Z,59.67
2019-01-28T16:26:12.140Z,62.17
2019-01-28T16:28:42.880Z,62.30
2019-01-28T16:31:14.654Z,71.57
2019-01-28T16:33:45.242Z,65.43
2019-01-28T16:36:16.180Z,62.83
2019-01-28T16:38:46.856Z,59.47
2019-01-28T16:41:17.489Z,61.77
2019-01-28T16:43:48.166Z,60.30
2019-01-28T16:46:18.844Z,67.30
2019-01-28T16:48:49.316Z,65.50
2019-01-28T16:51:19.939Z,76.40
2019-01-28T16:53:50.696Z,69.30
2019-01-28T16:56:22.469Z,65.03
2019-01-28T16:58:53.172Z,62.27
2019-01-28T17:01:23.845Z,72.97
2019-01-28T17:03:57.880Z,68.07
2019-01-28T17:06:28.538Z,62.50
2019-01-28T17:08:59.246Z,62.87
2019-01-28T17:11:29.865Z,75.13
2019-01-28T17:14:00.525Z,63.90
2019-01-28T17:16:31.150Z,64.83
2019-01-28T17:19:01.940Z,73.97
2019-01-28T17:21:32.984Z,74.57
2019-01-28T17:24:03.630Z,73.07
2019-01-28T17:26:34.304Z,71.80
2019-01-28T17:29:05.081Z,73.93
2019-01-28T17:31:37.054Z,75.33
2019-01-28T17:34:08.950Z,70.37
2019-01-28T17:36:39.602Z,70.97
2019-01-28T17:39:12.480Z,77.20
2019-01-28T17:41:46.662Z,79.07
2019-01-28T17:44:20.799Z,90.00
2019-01-28T17:46:51.728Z,98.47
2019-01-28T17:49:22.462Z,94.80
2019-01-28T17:51:53.040Z,89.87
2019-01-28T17:54:24.062Z,92.77
2019-01-28T17:56:59.849Z,93.10
2019-01-28T17:59:33.108Z,93.43
2019-01-28T18:02:03.949Z,101.83
2019-01-28T18:04:36.920Z,96.13
2019-01-28T18:07:11.149Z,100.80
2019-01-28T18:09:41.740Z,91.73
2019-01-28T18:12:13.395Z,95.77
2019-01-28T18:14:49.495Z,106.60
2019-01-28T18:17:20.167Z,97.80
2019-01-28T18:19:52.399Z,97.80
2019-01-28T18:22:26.695Z,106.70
2019-01-28T18:25:02.886Z,102.60
2019-01-28T18:27:36.004Z,99.10
2019-01-28T18:30:13.253Z,102.47
2019-01-28T18:32:51.784Z,100.20
2019-01-28T18:35:26.634Z,99.00
2019-01-28T18:38:00.381Z,108.40
2019-01-28T18:40:32.908Z,117.53
2019-01-28T18:43:06.479Z,123.07
2019-01-28T18:45:44.685Z,113.83
2019-01-28T18:48:18.744Z,114.07
2019-01-28T18:50:49.539Z,103.40
2019-01-28T18:53:22.300Z,104.03
2019-01-28T18:55:55.737Z,109.40
2019-01-28T18:58:36.859Z,105.93
2019-01-28T19:01:09.630Z,101.77
2019-01-28T19:03:48.645Z,112.87
2019-01-28T19:06:38.480Z,112.73
2019-01-28T19:09:20.015Z,107.53
2019-01-28T19:12:09.545Z,108.27
2019-01-28T19:15:00.546Z,109.37
2019-01-28T19:17:46.090Z,107.60
2019-01-28T19:20:24.121Z,117.50
2019-01-28T19:23:07.395Z,127.57
2019-01-28T19:25:39.868Z,120.07
2019-01-28T19:28:12.214Z,116.40
2019-01-28T19:30:44.023Z,109.43
2019-01-28T19:33:22.790Z,110.90
2019-01-28T19:35:53.515Z,112.87
2019-01-28T19:38:31.634Z,114.73
2019-01-28T19:41:02.759Z,115.23
2019-01-28T19:43:34.204Z,115.97
2019-01-28T19:46:10.357Z,115.30
2019-01-28T19:48:43.464Z,113.97
2019-01-28T19:51:15.767Z,98.03
2019-01-28T19:53:46.894Z,114.87
2019-01-28T19:56:18.184Z,102.63
2019-01-28T19:58:51.031Z,106.97
2019-01-28T20:01:21.732Z,102.37
2019-01-28T20:03:52.545Z,95.77
2019-01-28T20:06:23.274Z,93.97
2019-01-28T20:08:54.129Z,91.50
2019-01-28T20:11:24.796Z,101.23
2019-01-28T20:13:55.465Z,99.63
2019-01-28T20:16:33.201Z,97.23
2019-01-28T20:19:12.516Z,96.87
2019-01-28T20:21:45.614Z,107.23
2019-01-28T20:24:18.800Z,111.27
2019-01-28T20:26:49.519Z,104.30
2019-01-28T20:29:20.329Z,103.10
2019-01-28T20:31:55.654Z,107.73
2019-01-28T20:34:26.479Z,95.53
2019-01-28T20:37:06.399Z,102.77
2019-01-28T20:39:43.628Z,107.00
2019-01-28T20:42:18.024Z,109.43
2019-01-28T20:44:50.544Z,109.13
2019-01-28T20:47:22.781Z,115.37
2019-01-28T20:49:57.650Z,114.43
2019-01-28T20:52:31.850Z,113.13
2019-01-28T20:55:06.288Z,108.03
2019-01-28T20:57:39.215Z,105.50
2019-01-28T21:00:18.983Z,95.73
2019-01-28T21:02:49.730Z,91.87
2019-01-28T21:05:25.726Z,92.70
2019-01-28T21:08:01.627Z,88.60
2019-01-28T21:10:32.863Z,87.17
2019-01-28T21:13:04.991Z,90.10
2019-01-28T21:15:39.357Z,90.60
2019-01-28T21:18:13.985Z,89.83
2019-01-28T21:20:44.780Z,86.30
2019-01-28T21:23:15.929Z,109.03
2019-01-28T21:25:46.850Z,106.27
2019-01-28T21:28:19.864Z,101.73
2019-01-28T21:30:50.645Z,110.27
2019-01-28T21:33:22.516Z,112.53
2019-01-28T21:36:07.122Z,105.63
2019-01-28T21:38:44.796Z,104.67
2019-01-28T21:41:15.840Z,106.07
2019-01-28T21:43:46.589Z,109.30
2019-01-28T21:46:18.759Z,111.17
2019-01-28T21:48:53.303Z,104.10
2019-01-28T21:51:24.055Z,88.83
2019-01-28T21:53:54.997Z,89.67
2019-01-28T21:56:29.046Z,92.03
2019-01-28T21:58:59.780Z,87.43
2019-01-28T22:01:30.746Z,90.07
2019-01-28T22:04:02.699Z,79.53
2019-01-28T22:06:33.330Z,86.23
2019-01-28T22:09:04.302Z,77.37
2019-01-28T22:11:35.305Z,83.13
2019-01-28T22:14:06.127Z,78.73
2019-01-28T22:16:36.768Z,78.33
2019-01-28T22:19:07.552Z,78.43
2019-01-28T22:21:38.318Z,68.83
2019-01-28T22:24:09.217Z,72.83
2019-01-28T22:26:40.408Z,77.23
2019-01-28T22:29:11.129Z,79.47
2019-01-28T22:31:41.984Z,83.77
2019-01-28T22:34:12.757Z,87.13
2019-01-28T22:36:43.400Z,84.83
2019-01-28T22:39:15.246Z,86.93
2019-01-28T22:41:45.862Z,75.73
2019-01-28T22:44:16.462Z,72.40
2019-01-28T22:46:47.114Z,68.83
2019-01-28T22:49:17.901Z,75.33
2019-01-28T22:51:48.630Z,74.47
2019-01-28T22:54:19.296Z,76.60
2019-01-28T22:56:49.993Z,68.70
2019-01-28T22:59:20.873Z,70.27
2019-01-28T23:01:51.732Z,70.33
2019-01-28T23:04:22.472Z,74.97
2019-01-28T23:06:53.228Z,72.53
2019-01-28T23:09:23.866Z,72.73
2019-01-28T23:11:54.647Z,68.30
2019-01-28T23:14:25.498Z,65.97
2019-01-28T23:16:56.222Z,63.07
2019-01-28T23:19:26.928Z,65.50
2019-01-28T23:21:57.711Z,61.73
2019-01-28T23:24:29.091Z,53.60
2019-01-28T23:26:59.680Z,54.53
2019-01-28T23:29:30.452Z,48.13
2019-01-28T23:32:01.112Z,43.93
2019-01-28T23:34:31.887Z,42.93
2019-01-28T23:37:02.576Z,41.37
2019-01-28T23:39:33.207Z,39.60
2019-01-28T23:42:04.002Z,37.03
2019-01-28T23:44:34.646Z,40.27
2019-01-28T23:47:05.371Z,39.50
2019-01-28T23:49:36.099Z,36.33
2019-01-28T23:52:06.888Z,39.67
2019-01-28T23:54:37.425Z,37.10
2019-01-28T23:57:08.120Z,34.90
2019-01-28T23:59:38.844Z,36.57
